Culebra, PR

12:00 PM AST on April 26, 2015 (GMT -0400)
Al's Hilltop | | Change Station
CLOSE
Current Station
Personal Weather Station
Location: Culebra, PR
Elevation: 250 ft
Nearby Weather Stations

Elev 250 ft 18.30 °N, 65.29 °W | Updated 1 minute ago

Clear
Clear
84.6 °F
Feels Like 93 °F
N
9.0
Wind Variable Wind from SSE
Gusts 14.0 mph

Today
High -- | Low -- °F
--% Chance of Precip.
Yesterday
High -- | Low -- °F
Precip. -- in
5:57 AM 6:41 PM
First Quarter, 56% visible
Pressure 29.97 in
Visibility 10.0 miles
Clouds Clear
Heat Index 93 °F
Dew Point 75 °F
Humidity 74%
Rainfall 0.00 in
Snow Depth Not available.
UV 12 out of 12
Pollen Not available.
Air Quality Not available.
Flu Activity Sporadic
METAR TIST 261553Z 18010KT 10SM CLR 29/24 A2997 RMK AO2 SLP149 T02940239

More Conditions Fewer Conditions

Pressure 29.97 in
Visibility 10.0 miles
Clouds Clear
Heat Index 93 °F
Dew Point 75 °F
Humidity 74%
Rainfall 0.00 in
Snow Depth Not available.
UV 12 out of 12
Pollen Not available.
Air Quality Not available.
Flu Activity Sporadic
METAR TIST 261553Z 18010KT 10SM CLR 29/24 A2997 RMK AO2 SLP149 T02940239

More Conditions Fewer Conditions

10-Day Weather Forecast

Almanac

Astronomy

Apr. 26, 2015 Rise Set
Actual Time
Civil Twilight
Nautical Twilight
Astronomical Twilight
Moon
Length of Visible Light
Length of Day
Tomorrow will be .
, % of the Moon is Illuminated

Today's Extremes

State Highs State Lows

Community

WunderPhotos

Upload Photos

1,817,048 photos uploaded!

WunderBlogs® & News

Nearby

Air Quality

  Air Quality AQ Index Pollutant
Not available.

Snow Depth

Station Depth Elevation

Earthquake Activity

City Distance Mag. Time & Date
Minimum magnitude displayed is 2.5.

Coastal Water Temperatures

Place Temperature

Stations

Nearby Weather Stations

Station Location Temp. Windchill Dew Point Humidity Wind Precip. Elev Updated Type